Agra, India
Current Conditions -  °F | °C
As of 4:30 AM on Monday 24 Nov 2014 (Local Time) from VIDP Reporting Station
Haze Haze  
Wind Chill: 50°   Ceiling: Unl
Heat Index: 50°   Visibility: 0.93mi
Dew Point: 43°   Wind: 0mph
Humidity: 76%   Direction: NA
Pressure: 29.94"   Gusts: NA
Location:  27.18°N, 78.01°E
Report Text: VIDP 232330Z 00000KT 1500 R28/29/P2000 BR NSC 10/06 Q1014 NOSIG
Loading
Personal Weather Stations






























Interactive Weather Map New forecast layout! Learn more

10-Day Weather Forecast

Advertisements
Track Severe Weather on mobile